Terminal Aerodrome Forecast
Issued by NWS

Home | Current Version | Previous Version | Text Only | Print | Product List | Glossary On
Versions: 1 2 3 4 5 6 7 8 9 10 11 12 13
000
FTUS43 KDDC 271720
TAFGCK
TAF
KGCK 271720Z 2718/2818 32004KT P6SM SKC
     FM280200 20005KT P6SM SKC
     FM280800 28006KT P6SM SKC
     FM281100 32007KT P6SM SKC
     FM281700 04010KT P6SM SKC=

USA.gov is the U.S. government's official web portal to all federal, state and local government web resources and services.